Time;durP1;ratioP1;P1;durP2;ratioP2;P2;SDS_P1;SDS_P2;PMS_P1;PMS_P2;Temp;Humidity;BMP_temperature;BMP_pressure;BME280_temperature;BME280_humidity;BME280_pressure;Samples;Min_cycle;Max_cycle;Signal;HPM_P1;HPM_P2
2024/04/07 00:01:31;;;;;;;59.50;5.17;;;;;;;;;;5072253;28;20458;-68
2024/04/07 00:03:57;;;;;;;58.60;4.80;;;;;;;;;;5072452;28;20507;-68
2024/04/07 00:06:24;;;;;;;59.40;4.70;;;;;;;;;;5072648;28;20443;-68
2024/04/07 00:08:50;;;;;;;58.63;4.60;;;;;;;;;;5072391;28;20506;-68
2024/04/07 00:11:17;;;;;;;63.07;4.37;;;;;;;;;;5071716;28;20504;-68
2024/04/07 00:13:45;;;;;;;58.77;4.17;;;;;;;;;;5072140;28;20536;-68
2024/04/07 00:16:12;;;;;;;60.47;4.97;;;;;;;;;;5072149;28;20444;-68
2024/04/07 00:18:38;;;;;;;61.63;5.17;;;;;;;;;;5071951;28;20495;-68
2024/04/07 00:21:06;;;;;;;59.77;5.63;;;;;;;;;;5071451;28;20944;-69
2024/04/07 00:23:33;;;;;;;58.77;4.57;;;;;;;;;;5071634;28;20823;-68
2024/04/07 00:26:00;;;;;;;60.10;4.47;;;;;;;;;;5071682;28;20855;-68
2024/04/07 00:28:27;;;;;;;62.90;5.50;;;;;;;;;;5072045;28;20907;-68
2024/04/07 00:30:55;;;;;;;58.57;4.90;;;;;;;;;;5071638;28;20444;-68
2024/04/07 00:33:21;;;;;;;59.10;5.27;;;;;;;;;;5071537;28;20539;-68
2024/04/07 00:35:55;;;;;;;57.90;5.10;;;;;;;;;;5071737;28;20472;-68
2024/04/07 00:38:21;;;;;;;60.03;5.33;;;;;;;;;;5071578;28;20992;-68
2024/04/07 00:40:48;;;;;;;58.10;4.43;;;;;;;;;;5071153;28;20444;-68
2024/04/07 00:43:14;;;;;;;59.40;4.83;;;;;;;;;;5071513;28;20462;-68
2024/04/07 00:45:42;;;;;;;59.23;4.97;;;;;;;;;;5071738;28;20447;-68
2024/04/07 00:48:09;;;;;;;60.93;6.20;;;;;;;;;;5071333;28;21028;-68
2024/04/07 00:50:37;;;;;;;59.90;5.10;;;;;;;;;;5071288;28;20948;-69
2024/04/07 00:53:04;;;;;;;58.27;4.97;;;;;;;;;;5071818;28;20542;-69
2024/04/07 00:55:31;;;;;;;58.03;4.60;;;;;;;;;;5071671;28;20509;-68
2024/04/07 00:57:58;;;;;;;62.00;5.40;;;;;;;;;;5071444;28;20499;-68
2024/04/07 01:00:27;;;;;;;58.50;4.70;;;;;;;;;;5070829;28;20577;-68
2024/04/07 01:02:53;;;;;;;58.83;5.00;;;;;;;;;;5071307;28;20444;-68
2024/04/07 01:05:22;;;;;;;59.63;4.50;;;;;;;;;;5071386;28;20493;-68
2024/04/07 01:07:49;;;;;;;59.87;4.83;;;;;;;;;;5071095;28;20436;-68
2024/04/07 01:10:16;;;;;;;59.83;4.43;;;;;;;;;;5071075;28;20531;-68
2024/04/07 01:12:51;;;;;;;58.63;5.33;;;;;;;;;;5071379;28;20454;-68
2024/04/07 01:15:18;;;;;;;58.47;4.60;;;;;;;;;;5071216;28;20539;-68
2024/04/07 01:17:44;;;;;;;58.77;4.80;;;;;;;;;;5071190;28;20594;-68
2024/04/07 01:20:13;;;;;;;59.30;4.67;;;;;;;;;;5070523;28;20444;-68
2024/04/07 01:22:40;;;;;;;57.40;4.50;;;;;;;;;;5070620;28;20498;-68
2024/04/07 01:25:09;;;;;;;60.37;4.80;;;;;;;;;;5071049;28;20570;-68
2024/04/07 01:27:35;;;;;;;58.00;5.00;;;;;;;;;;5071155;28;20455;-68
2024/04/07 01:30:03;;;;;;;61.13;4.90;;;;;;;;;;5071081;28;20451;-68
2024/04/07 01:32:29;;;;;;;58.17;4.60;;;;;;;;;;5071183;28;20454;-68
2024/04/07 01:34:56;;;;;;;58.97;4.77;;;;;;;;;;5074608;28;20561;-68
2024/04/07 01:37:22;;;;;;;59.07;4.70;;;;;;;;;;5075400;28;20489;-68
2024/04/07 01:39:49;;;;;;;58.90;4.70;;;;;;;;;;5072646;28;20470;-68
2024/04/07 01:42:17;;;;;;;58.17;4.47;;;;;;;;;;5054275;28;20843;-69
2024/04/07 01:44:44;;;;;;;58.63;4.60;;;;;;;;;;5054831;28;20456;-68
2024/04/07 01:47:10;;;;;;;58.57;4.40;;;;;;;;;;5054614;28;20453;-68
2024/04/07 01:49:38;;;;;;;58.80;4.20;;;;;;;;;;5054539;28;20496;-69
2024/04/07 01:52:04;;;;;;;58.83;4.40;;;;;;;;;;5052153;28;20456;-68
2024/04/07 01:54:32;;;;;;;60.40;4.50;;;;;;;;;;5054639;28;20445;-68
2024/04/07 01:56:58;;;;;;;58.17;4.30;;;;;;;;;;5054595;28;20449;-68
2024/04/07 01:59:27;;;;;;;57.37;3.93;;;;;;;;;;5054763;28;20500;-68
2024/04/07 02:01:53;;;;;;;57.80;4.13;;;;;;;;;;5053846;28;20500;-68
2024/04/07 02:04:20;;;;;;;59.60;5.30;;;;;;;;;;5054162;28;20450;-68
2024/04/07 02:06:46;;;;;;;59.37;4.47;;;;;;;;;;5054367;28;20471;-68
2024/04/07 02:09:13;;;;;;;57.67;4.00;;;;;;;;;;5054298;28;20460;-68
2024/04/07 02:11:39;;;;;;;59.40;5.07;;;;;;;;;;5053926;28;20465;-68
2024/04/07 02:14:06;;;;;;;64.43;4.57;;;;;;;;;;5053987;28;20452;-68
2024/04/07 02:16:34;;;;;;;58.23;4.40;;;;;;;;;;5054019;28;20471;-68
2024/04/07 02:19:01;;;;;;;60.50;4.53;;;;;;;;;;5054309;28;20491;-68
2024/04/07 02:21:27;;;;;;;60.37;4.97;;;;;;;;;;5053875;28;20457;-68
2024/04/07 02:23:54;;;;;;;58.63;5.07;;;;;;;;;;5053913;28;20444;-68
2024/04/07 02:26:21;;;;;;;58.07;4.87;;;;;;;;;;5065993;28;20454;-68
2024/04/07 02:28:48;;;;;;;59.57;5.00;;;;;;;;;;5074089;28;20906;-68
2024/04/07 02:31:15;;;;;;;59.60;4.20;;;;;;;;;;5073402;28;20446;-68
2024/04/07 02:33:46;;;;;;;58.90;4.70;;;;;;;;;;5073893;28;20827;-68
2024/04/07 02:36:12;;;;;;;58.73;4.87;;;;;;;;;;5073971;28;20469;-68
2024/04/07 02:38:39;;;;;;;58.40;4.60;;;;;;;;;;5073844;28;20491;-68
2024/04/07 02:41:05;;;;;;;58.00;4.80;;;;;;;;;;5073139;28;20452;-68
2024/04/07 02:43:33;;;;;;;59.60;5.27;;;;;;;;;;5072963;28;20475;-68
2024/04/07 02:48:46;;;;;;;63.37;4.70;;;;;;;;;;5073554;28;20459;-68
2024/04/07 02:51:13;;;;;;;58.90;4.63;;;;;;;;;;5073132;28;20443;-68
2024/04/07 02:53:40;;;;;;;58.50;4.33;;;;;;;;;;5073425;28;20448;-68
2024/04/07 02:56:08;;;;;;;57.23;4.43;;;;;;;;;;5073358;28;20824;-68
2024/04/07 02:58:34;;;;;;;57.30;4.10;;;;;;;;;;5073187;28;20488;-68
2024/04/07 03:01:04;;;;;;;59.07;4.60;;;;;;;;;;5072928;28;20474;-68
2024/04/07 03:03:31;;;;;;;57.80;4.33;;;;;;;;;;5073338;28;20878;-68
2024/04/07 03:05:59;;;;;;;58.40;4.60;;;;;;;;;;5073194;28;20448;-68
2024/04/07 03:08:25;;;;;;;58.33;4.30;;;;;;;;;;5073142;28;20479;-68
2024/04/07 03:10:59;;;;;;;58.17;4.40;;;;;;;;;;5072781;28;20448;-68
2024/04/07 03:13:25;;;;;;;59.23;4.13;;;;;;;;;;5073212;28;20576;-68
2024/04/07 03:15:52;;;;;;;58.93;4.67;;;;;;;;;;5073379;28;20509;-68
2024/04/07 03:18:19;;;;;;;60.47;4.33;;;;;;;;;;5072889;28;20502;-68
2024/04/07 03:20:46;;;;;;;60.57;4.90;;;;;;;;;;5072639;28;20483;-68
2024/04/07 03:23:14;;;;;;;58.27;4.30;;;;;;;;;;5072757;28;20530;-68
2024/04/07 03:25:41;;;;;;;58.20;4.50;;;;;;;;;;5072727;28;20939;-68
2024/04/07 03:28:07;;;;;;;61.40;4.80;;;;;;;;;;5073009;28;20468;-68
2024/04/07 03:30:35;;;;;;;60.17;4.47;;;;;;;;;;5072211;28;20483;-68
2024/04/07 03:33:02;;;;;;;58.37;4.50;;;;;;;;;;5072914;28;20780;-68
2024/04/07 03:35:29;;;;;;;57.27;4.03;;;;;;;;;;5072536;28;20474;-68
2024/04/07 03:37:56;;;;;;;58.47;4.70;;;;;;;;;;5072567;28;20527;-68
2024/04/07 03:40:25;;;;;;;58.37;4.47;;;;;;;;;;5063855;28;20994;-68
2024/04/07 03:42:52;;;;;;;58.37;4.60;;;;;;;;;;5072621;28;20482;-68
2024/04/07 03:45:19;;;;;;;61.17;4.47;;;;;;;;;;5072788;28;20451;-68
2024/04/07 03:47:45;;;;;;;58.77;4.93;;;;;;;;;;5072487;28;20547;-68
2024/04/07 03:50:13;;;;;;;60.87;4.33;;;;;;;;;;5071781;28;20762;-68
2024/04/07 03:52:40;;;;;;;59.67;4.70;;;;;;;;;;5072137;28;20444;-69
2024/04/07 03:55:07;;;;;;;59.80;4.37;;;;;;;;;;5072175;28;20509;-68
2024/04/07 03:57:35;;;;;;;59.60;4.37;;;;;;;;;;5072483;28;20474;-68
2024/04/07 04:00:03;;;;;;;58.50;4.40;;;;;;;;;;5072291;28;20452;-68
2024/04/07 04:02:31;;;;;;;58.57;4.40;;;;;;;;;;5071383;28;20452;-68
2024/04/07 04:04:58;;;;;;;59.60;4.70;;;;;;;;;;5071956;28;20448;-68
2024/04/07 04:07:26;;;;;;;58.37;4.67;;;;;;;;;;5072119;28;20440;-68
2024/04/07 04:09:52;;;;;;;64.60;4.40;;;;;;;;;;5072231;28;20464;-68
2024/04/07 04:12:19;;;;;;;60.27;4.90;;;;;;;;;;5071540;28;20459;-68
2024/04/07 04:14:47;;;;;;;58.17;4.53;;;;;;;;;;5071754;28;20978;-68
2024/04/07 04:17:15;;;;;;;58.67;4.63;;;;;;;;;;5071923;28;20462;-68
2024/04/07 04:19:41;;;;;;;59.10;4.47;;;;;;;;;;5071679;28;20484;-68
2024/04/07 04:22:08;;;;;;;57.60;4.40;;;;;;;;;;5071235;28;20455;-68
2024/04/07 04:24:35;;;;;;;60.27;4.70;;;;;;;;;;5072017;28;20447;-68
2024/04/07 04:27:02;;;;;;;60.50;4.80;;;;;;;;;;5071758;28;20459;-68
2024/04/07 04:29:28;;;;;;;58.37;4.37;;;;;;;;;;5071584;28;20991;-68
2024/04/07 04:31:58;;;;;;;61.33;4.87;;;;;;;;;;5071142;28;20933;-68
2024/04/07 04:34:24;;;;;;;57.67;4.27;;;;;;;;;;5071137;28;20448;-68
2024/04/07 04:36:51;;;;;;;57.70;4.60;;;;;;;;;;5071832;28;20443;-68
2024/04/07 04:39:17;;;;;;;59.93;4.57;;;;;;;;;;5071554;28;20549;-68
2024/04/07 04:41:45;;;;;;;60.00;4.53;;;;;;;;;;5071409;28;20443;-68
2024/04/07 04:44:12;;;;;;;58.67;4.27;;;;;;;;;;5071353;28;20505;-68
2024/04/07 04:46:41;;;;;;;59.10;4.57;;;;;;;;;;5071674;28;20460;-68
2024/04/07 04:49:10;;;;;;;58.80;4.17;;;;;;;;;;5071215;28;20828;-68
2024/04/07 04:51:36;;;;;;;60.00;5.60;;;;;;;;;;5071041;28;20454;-68
2024/04/07 04:54:03;;;;;;;57.27;4.30;;;;;;;;;;5071157;28;20448;-68
2024/04/07 04:56:29;;;;;;;59.07;4.47;;;;;;;;;;5071453;28;20460;-68
2024/04/07 04:58:57;;;;;;;58.40;4.20;;;;;;;;;;5071094;28;20511;-68
2024/04/07 05:01:24;;;;;;;58.70;5.63;;;;;;;;;;5070799;28;20444;-68
2024/04/07 05:03:51;;;;;;;59.27;4.87;;;;;;;;;;5071157;28;20480;-68
2024/04/07 05:06:19;;;;;;;59.60;4.87;;;;;;;;;;5071728;28;20750;-68
2024/04/07 05:08:46;;;;;;;60.80;5.00;;;;;;;;;;5070804;28;20923;-68
2024/04/07 05:11:12;;;;;;;57.67;4.00;;;;;;;;;;5070813;28;20455;-68
2024/04/07 05:13:40;;;;;;;58.07;4.27;;;;;;;;;;5071094;28;20452;-68
2024/04/07 05:16:06;;;;;;;57.70;4.50;;;;;;;;;;5071113;28;20447;-68
2024/04/07 05:18:34;;;;;;;58.50;4.57;;;;;;;;;;5071237;28;20553;-68
2024/04/07 05:21:03;;;;;;;57.97;4.70;;;;;;;;;;5070949;28;20448;-68
2024/04/07 05:23:31;;;;;;;58.47;4.70;;;;;;;;;;5071066;28;20448;-68
2024/04/07 05:25:58;;;;;;;58.47;4.80;;;;;;;;;;5071131;28;20458;-68
2024/04/07 05:28:27;;;;;;;57.83;4.77;;;;;;;;;;5070964;28;20460;-68
2024/04/07 05:30:53;;;;;;;57.33;4.40;;;;;;;;;;5070958;28;20448;-68
2024/04/07 05:33:20;;;;;;;62.20;4.67;;;;;;;;;;5070558;28;20970;-68
2024/04/07 05:35:52;;;;;;;58.57;5.10;;;;;;;;;;5071094;28;20531;-68
2024/04/07 05:38:19;;;;;;;58.77;4.50;;;;;;;;;;5070903;28;20511;-68
2024/04/07 05:40:53;;;;;;;58.27;4.40;;;;;;;;;;5070627;28;20444;-68
2024/04/07 05:43:20;;;;;;;61.60;4.63;;;;;;;;;;5071031;28;20456;-68
2024/04/07 05:45:46;;;;;;;57.80;4.03;;;;;;;;;;5070860;28;20534;-68
2024/04/07 05:48:13;;;;;;;60.20;4.70;;;;;;;;;;5070822;28;20597;-68
2024/04/07 05:50:39;;;;;;;57.50;4.80;;;;;;;;;;5070293;28;20451;-68
2024/04/07 05:53:07;;;;;;;58.23;4.60;;;;;;;;;;5070742;28;20448;-68
2024/04/07 05:55:34;;;;;;;60.90;4.97;;;;;;;;;;5070569;28;20452;-68
2024/04/07 05:58:02;;;;;;;60.67;5.10;;;;;;;;;;5070633;28;20478;-68
2024/04/07 06:00:30;;;;;;;61.07;5.30;;;;;;;;;;5070360;28;20819;-68
2024/04/07 06:02:57;;;;;;;58.60;4.43;;;;;;;;;;5070648;28;20451;-68
2024/04/07 06:05:23;;;;;;;58.27;4.93;;;;;;;;;;5070522;28;20444;-68
2024/04/07 06:07:51;;;;;;;59.27;4.73;;;;;;;;;;5070691;28;20532;-68
2024/04/07 06:10:17;;;;;;;57.43;4.33;;;;;;;;;;5070074;28;20447;-68
2024/04/07 06:12:44;;;;;;;61.07;4.27;;;;;;;;;;5070852;28;20454;-68
2024/04/07 06:15:11;;;;;;;61.43;4.53;;;;;;;;;;5070704;28;20547;-68
2024/04/07 06:17:39;;;;;;;59.70;5.30;;;;;;;;;;5070563;28;20793;-68
2024/04/07 06:20:05;;;;;;;58.70;5.53;;;;;;;;;;5073808;28;20487;-68
2024/04/07 06:22:32;;;;;;;60.47;6.90;;;;;;;;;;5073202;28;20443;-68
2024/04/07 06:24:58;;;;;;;61.87;8.20;;;;;;;;;;5073953;28;20444;-68
2024/04/07 06:27:25;;;;;;;58.60;6.00;;;;;;;;;;5074217;28;20443;-68
2024/04/07 06:29:58;;;;;;;64.57;5.40;;;;;;;;;;5074147;28;20452;-68
2024/04/07 06:32:27;;;;;;;61.60;5.20;;;;;;;;;;5073406;28;20450;-68
2024/04/07 06:34:53;;;;;;;59.43;4.77;;;;;;;;;;5073332;28;20456;-69
2024/04/07 06:37:20;;;;;;;58.50;5.03;;;;;;;;;;5073451;28;20448;-68
2024/04/07 06:39:46;;;;;;;58.57;4.97;;;;;;;;;;5073830;28;20491;-69
2024/04/07 06:42:13;;;;;;;58.70;4.73;;;;;;;;;;5073249;28;20482;-68
2024/04/07 06:44:40;;;;;;;57.87;4.80;;;;;;;;;;5072751;28;20447;-69
2024/04/07 06:47:08;;;;;;;63.10;5.00;;;;;;;;;;5073184;28;20478;-68
2024/04/07 06:49:36;;;;;;;60.20;6.30;;;;;;;;;;5073504;28;21030;-70
2024/04/07 06:52:03;;;;;;;59.37;5.83;;;;;;;;;;5072999;28;20448;-69
2024/04/07 06:54:29;;;;;;;61.60;6.60;;;;;;;;;;5073177;28;20444;-68
2024/04/07 06:56:56;;;;;;;66.17;11.20;;;;;;;;;;5073283;28;20451;-68
2024/04/07 06:59:22;;;;;;;62.50;7.80;;;;;;;;;;5073346;28;20517;-68
2024/04/07 07:01:49;;;;;;;61.23;6.33;;;;;;;;;;5072996;28;20474;-68
2024/04/07 07:04:16;;;;;;;58.90;4.33;;;;;;;;;;5073042;28;20539;-68
2024/04/07 07:06:44;;;;;;;61.27;4.77;;;;;;;;;;5072939;28;20788;-69
2024/04/07 07:09:10;;;;;;;59.50;4.07;;;;;;;;;;5072223;28;21014;-69
2024/04/07 07:11:37;;;;;;;60.80;4.20;;;;;;;;;;5072989;28;21017;-68
2024/04/07 07:14:03;;;;;;;57.37;3.80;;;;;;;;;;5073084;28;20444;-68
2024/04/07 07:16:30;;;;;;;60.47;5.07;;;;;;;;;;5073175;28;20559;-68
2024/04/07 07:18:57;;;;;;;57.40;3.97;;;;;;;;;;5072911;28;20487;-68
2024/04/07 07:21:24;;;;;;;59.00;4.60;;;;;;;;;;5072727;28;20538;-68
2024/04/07 07:23:51;;;;;;;58.27;4.20;;;;;;;;;;5072735;28;20462;-68
2024/04/07 07:26:18;;;;;;;58.90;4.83;;;;;;;;;;5073059;28;20452;-68
2024/04/07 07:28:44;;;;;;;60.27;5.20;;;;;;;;;;5072906;28;20468;-68
2024/04/07 07:31:11;;;;;;;58.80;5.27;;;;;;;;;;5071708;28;20462;-68
2024/04/07 07:33:38;;;;;;;58.70;4.40;;;;;;;;;;5072404;28;20456;-68
2024/04/07 07:36:05;;;;;;;59.17;5.00;;;;;;;;;;5073204;28;20531;-68
2024/04/07 07:38:31;;;;;;;60.20;5.03;;;;;;;;;;5072760;28;20588;-68
2024/04/07 07:41:00;;;;;;;58.50;4.10;;;;;;;;;;5072133;28;20491;-68
2024/04/07 07:43:26;;;;;;;58.17;4.33;;;;;;;;;;5072464;28;20531;-68
2024/04/07 07:45:53;;;;;;;58.00;4.20;;;;;;;;;;5072709;28;20836;-69
2024/04/07 07:48:21;;;;;;;59.07;5.07;;;;;;;;;;5072464;28;20488;-68
2024/04/07 07:50:48;;;;;;;58.60;4.40;;;;;;;;;;5072321;28;20444;-66
2024/04/07 07:53:14;;;;;;;57.83;4.40;;;;;;;;;;5072525;28;20451;-66
2024/04/07 07:55:41;;;;;;;59.70;4.53;;;;;;;;;;5072658;28;20623;-66
2024/04/07 07:58:09;;;;;;;58.00;4.47;;;;;;;;;;5072567;28;21013;-68
2024/04/07 08:00:36;;;;;;;57.90;4.03;;;;;;;;;;5071737;28;20519;-67
2024/04/07 08:03:02;;;;;;;58.43;4.77;;;;;;;;;;5072547;28;20455;-67
2024/04/07 08:05:29;;;;;;;59.27;4.30;;;;;;;;;;5069331;28;20955;-68
2024/04/07 08:07:55;;;;;;;60.20;3.90;;;;;;;;;;5068853;28;20756;-67
2024/04/07 08:10:23;;;;;;;58.43;4.03;;;;;;;;;;5069663;28;20516;-68
2024/04/07 08:12:49;;;;;;;57.00;3.57;;;;;;;;;;5071785;28;20448;-68
2024/04/07 08:15:17;;;;;;;58.47;4.00;;;;;;;;;;5071825;28;20444;-68
2024/04/07 08:17:44;;;;;;;58.00;4.10;;;;;;;;;;5068987;28;20456;-68
2024/04/07 08:20:12;;;;;;;58.07;3.57;;;;;;;;;;5071165;28;20494;-68
2024/04/07 08:22:39;;;;;;;57.47;4.10;;;;;;;;;;5071948;28;20829;-68
2024/04/07 08:25:06;;;;;;;57.83;3.67;;;;;;;;;;5072091;28;20448;-68
2024/04/07 08:27:33;;;;;;;57.60;3.90;;;;;;;;;;5071726;28;20459;-68
2024/04/07 08:30:00;;;;;;;59.03;4.40;;;;;;;;;;5071650;28;20968;-68
2024/04/07 08:32:28;;;;;;;57.70;4.20;;;;;;;;;;5071391;28;20458;-68
2024/04/07 08:34:55;;;;;;;58.10;4.53;;;;;;;;;;5071952;28;20482;-68
2024/04/07 08:37:22;;;;;;;60.43;4.07;;;;;;;;;;5071833;28;20458;-69
2024/04/07 08:39:49;;;;;;;57.57;4.00;;;;;;;;;;5071632;28;20480;-68
2024/04/07 08:42:15;;;;;;;59.57;3.80;;;;;;;;;;5070164;28;20448;-68
2024/04/07 08:44:43;;;;;;;57.97;3.70;;;;;;;;;;5071835;28;20517;-68
2024/04/07 08:47:11;;;;;;;58.97;3.77;;;;;;;;;;5071829;28;20502;-68
2024/04/07 08:49:39;;;;;;;61.90;4.00;;;;;;;;;;5071568;28;20464;-69
2024/04/07 08:52:08;;;;;;;59.10;3.40;;;;;;;;;;5071508;28;20448;-68
2024/04/07 08:54:36;;;;;;;58.90;3.53;;;;;;;;;;5071317;28;20463;-68
2024/04/07 08:57:07;;;;;;;60.40;3.83;;;;;;;;;;5071349;28;20491;-67
2024/04/07 08:59:35;;;;;;;66.33;4.37;;;;;;;;;;5071658;28;20499;-67
2024/04/07 09:02:02;;;;;;;58.13;3.60;;;;;;;;;;5071042;28;20454;-67
2024/04/07 09:04:32;;;;;;;58.33;3.63;;;;;;;;;;5070895;28;20480;-68
2024/04/07 09:06:59;;;;;;;61.07;3.47;;;;;;;;;;5071315;28;20574;-68
2024/04/07 09:09:26;;;;;;;57.20;3.30;;;;;;;;;;5071153;28;20463;-67
2024/04/07 09:11:53;;;;;;;60.80;3.43;;;;;;;;;;5070903;28;20456;-68
2024/04/07 09:14:20;;;;;;;68.60;4.33;;;;;;;;;;5070968;28;20542;-68
2024/04/07 09:16:46;;;;;;;58.10;2.90;;;;;;;;;;5071809;28;20479;-68
2024/04/07 09:19:14;;;;;;;60.07;3.67;;;;;;;;;;5071069;28;20537;-67
2024/04/07 09:21:44;;;;;;;60.10;3.40;;;;;;;;;;5070622;28;20475;-67
2024/04/07 09:24:12;;;;;;;59.17;3.37;;;;;;;;;;5071210;28;20447;-67
2024/04/07 09:26:38;;;;;;;60.90;2.93;;;;;;;;;;5071410;28;20440;-67
2024/04/07 09:29:06;;;;;;;62.60;2.93;;;;;;;;;;5071173;28;20491;-67
2024/04/07 09:31:32;;;;;;;58.17;3.07;;;;;;;;;;5070530;28;21039;-67
2024/04/07 09:33:59;;;;;;;58.00;3.00;;;;;;;;;;5070627;28;20503;-68
2024/04/07 09:36:25;;;;;;;61.27;3.03;;;;;;;;;;5069716;28;20531;-67
2024/04/07 09:38:52;;;;;;;63.53;3.73;;;;;;;;;;5051203;28;20501;-67
2024/04/07 09:41:22;;;;;;;57.07;3.17;;;;;;;;;;5050338;28;20448;-67
2024/04/07 09:43:53;;;;;;;60.63;3.20;;;;;;;;;;5050907;28;20453;-67
2024/04/07 09:46:21;;;;;;;57.60;2.83;;;;;;;;;;5051072;28;20815;-67
2024/04/07 09:48:49;;;;;;;57.43;2.53;;;;;;;;;;5051009;28;20468;-67
2024/04/07 09:51:18;;;;;;;58.70;2.73;;;;;;;;;;5050566;28;20824;-68
2024/04/07 09:53:49;;;;;;;59.60;2.63;;;;;;;;;;5064384;28;20515;-67
2024/04/07 09:56:16;;;;;;;58.77;2.80;;;;;;;;;;5074968;28;20530;-67
2024/04/07 09:58:44;;;;;;;58.83;2.83;;;;;;;;;;5074387;28;21066;-67
2024/04/07 10:01:11;;;;;;;58.57;2.80;;;;;;;;;;5074241;28;20476;-68
2024/04/07 10:03:38;;;;;;;60.10;3.00;;;;;;;;;;5074345;28;20448;-67
2024/04/07 10:06:04;;;;;;;60.83;3.63;;;;;;;;;;5074829;28;20549;-67
2024/04/07 10:08:34;;;;;;;57.37;3.20;;;;;;;;;;5074710;28;20470;-71
2024/04/07 10:11:00;;;;;;;61.80;3.30;;;;;;;;;;5074673;28;20455;-72
2024/04/07 10:13:27;;;;;;;58.57;3.40;;;;;;;;;;5074249;28;20531;-72
2024/04/07 10:15:58;;;;;;;60.80;3.50;;;;;;;;;;5074410;28;20457;-71
2024/04/07 10:18:29;;;;;;;59.60;3.27;;;;;;;;;;5074346;28;20588;-71
2024/04/07 10:20:55;;;;;;;57.77;3.07;;;;;;;;;;5074023;28;20485;-71
2024/04/07 10:23:26;;;;;;;58.27;3.30;;;;;;;;;;5065056;28;20455;-72
2024/04/07 10:25:59;;;;;;;58.50;4.43;;;;;;;;;;5059550;28;20437;-71
2024/04/07 10:28:26;;;;;;;59.87;4.03;;;;;;;;;;5074348;28;20529;-71
2024/04/07 10:30:53;;;;;;;57.80;3.00;;;;;;;;;;5073833;28;20477;-72
2024/04/07 10:33:22;;;;;;;58.20;3.23;;;;;;;;;;5074008;28;20451;-72
2024/04/07 10:35:57;;;;;;;57.40;3.67;;;;;;;;;;5074399;28;20448;-71
2024/04/07 10:38:23;;;;;;;57.27;3.43;;;;;;;;;;5073989;28;20841;-71
2024/04/07 10:40:52;;;;;;;58.70;3.43;;;;;;;;;;5073708;28;20483;-72
2024/04/07 10:43:19;;;;;;;56.97;3.30;;;;;;;;;;5074422;28;20447;-72
2024/04/07 10:45:46;;;;;;;59.10;3.73;;;;;;;;;;5074130;28;20439;-71
2024/04/07 10:48:12;;;;;;;57.97;2.80;;;;;;;;;;5074312;28;20459;-71
2024/04/07 10:50:40;;;;;;;55.90;2.77;;;;;;;;;;5073774;28;20435;-71
2024/04/07 10:53:07;;;;;;;57.90;3.50;;;;;;;;;;5066067;28;20970;-71
2024/04/07 10:55:35;;;;;;;57.03;3.10;;;;;;;;;;5051682;28;20536;-72
2024/04/07 10:58:01;;;;;;;60.50;3.50;;;;;;;;;;5061474;28;20476;-72
2024/04/07 11:00:28;;;;;;;61.47;3.90;;;;;;;;;;5071048;28;20486;-72
2024/04/07 11:02:54;;;;;;;57.47;3.53;;;;;;;;;;5073791;28;20470;-72
2024/04/07 11:05:22;;;;;;;58.63;3.47;;;;;;;;;;5072636;28;20446;-72
2024/04/07 11:07:49;;;;;;;60.20;2.80;;;;;;;;;;5073509;28;20833;-71
2024/04/07 11:10:17;;;;;;;59.47;3.07;;;;;;;;;;5073012;28;20512;-72
2024/04/07 11:12:44;;;;;;;58.27;3.07;;;;;;;;;;5073261;28;20447;-71
2024/04/07 11:15:18;;;;;;;58.20;2.53;;;;;;;;;;5073571;28;20527;-72
2024/04/07 11:17:47;;;;;;;59.30;3.20;;;;;;;;;;5070935;28;21036;-72
2024/04/07 11:20:14;;;;;;;56.97;3.03;;;;;;;;;;5068815;28;20515;-72
2024/04/07 11:22:41;;;;;;;58.97;2.77;;;;;;;;;;5072824;28;20447;-71
2024/04/07 11:25:08;;;;;;;61.20;3.23;;;;;;;;;;5073588;28;20476;-71
2024/04/07 11:27:35;;;;;;;57.93;3.10;;;;;;;;;;5073270;28;20452;-71
2024/04/07 11:30:01;;;;;;;57.87;3.20;;;;;;;;;;5073421;28;20532;-71
2024/04/07 11:32:29;;;;;;;60.33;3.30;;;;;;;;;;5072653;28;20444;-71
2024/04/07 11:34:55;;;;;;;58.50;3.43;;;;;;;;;;5073004;28;20932;-72
2024/04/07 11:37:22;;;;;;;58.77;3.30;;;;;;;;;;5073150;28;20451;-71
2024/04/07 11:39:51;;;;;;;61.60;3.87;;;;;;;;;;5072934;28;21021;-72
2024/04/07 11:42:21;;;;;;;58.00;3.30;;;;;;;;;;5072733;28;20451;-71
2024/04/07 11:44:48;;;;;;;56.20;3.13;;;;;;;;;;5073492;28;20455;-72
2024/04/07 11:47:16;;;;;;;58.63;3.37;;;;;;;;;;5073442;28;20501;-72
2024/04/07 11:49:43;;;;;;;58.03;4.00;;;;;;;;;;5072983;28;20460;-72
2024/04/07 11:52:10;;;;;;;59.77;3.50;;;;;;;;;;5072406;28;20826;-72
2024/04/07 11:54:36;;;;;;;59.27;3.17;;;;;;;;;;5072798;28;20816;-72
2024/04/07 11:57:03;;;;;;;57.10;3.23;;;;;;;;;;5072656;28;20452;-71
2024/04/07 11:59:31;;;;;;;59.73;3.67;;;;;;;;;;5072621;28;20464;-71
2024/04/07 12:01:58;;;;;;;61.13;3.47;;;;;;;;;;5071737;28;20455;-71
2024/04/07 12:04:24;;;;;;;60.10;3.33;;;;;;;;;;5072420;28;20451;-71
2024/04/07 12:06:51;;;;;;;60.43;2.57;;;;;;;;;;5067136;28;20460;-71
2024/04/07 12:09:18;;;;;;;59.60;3.50;;;;;;;;;;5068765;28;20832;-71
2024/04/07 12:11:45;;;;;;;60.27;3.00;;;;;;;;;;5072173;28;20526;-71
2024/04/07 12:14:11;;;;;;;56.37;2.67;;;;;;;;;;5072321;28;20443;-71
2024/04/07 12:16:39;;;;;;;58.50;3.30;;;;;;;;;;5072299;28;20439;-71
2024/04/07 12:19:06;;;;;;;60.63;5.07;;;;;;;;;;5072016;28;20917;-72
2024/04/07 12:21:33;;;;;;;58.17;3.60;;;;;;;;;;5071831;28;20614;-72
2024/04/07 12:24:00;;;;;;;61.50;3.63;;;;;;;;;;5072405;28;20843;-72
2024/04/07 12:26:27;;;;;;;57.10;3.90;;;;;;;;;;5072371;28;20801;-72
2024/04/07 12:28:53;;;;;;;57.33;3.20;;;;;;;;;;5072268;28;20478;-72
2024/04/07 12:31:20;;;;;;;58.10;4.07;;;;;;;;;;5056122;28;20484;-72
2024/04/07 12:33:49;;;;;;;59.00;4.70;;;;;;;;;;5051998;28;20536;-72
2024/04/07 12:36:16;;;;;;;60.83;3.33;;;;;;;;;;5052294;28;20891;-72
2024/04/07 12:38:42;;;;;;;61.60;4.17;;;;;;;;;;5051992;28;20464;-72
2024/04/07 12:41:09;;;;;;;61.10;4.37;;;;;;;;;;5051311;28;20449;-72
2024/04/07 12:43:36;;;;;;;67.67;3.80;;;;;;;;;;5051735;28;20461;-72
2024/04/07 12:46:03;;;;;;;56.90;3.23;;;;;;;;;;5051972;28;20963;-72
2024/04/07 12:48:29;;;;;;;59.23;3.00;;;;;;;;;;5052152;28;20468;-72
2024/04/07 12:50:57;;;;;;;64.43;3.50;;;;;;;;;;5051463;28;20486;-70
2024/04/07 12:53:23;;;;;;;58.67;3.60;;;;;;;;;;5051715;28;20639;-73
2024/04/07 12:55:51;;;;;;;58.00;3.27;;;;;;;;;;5051869;28;20921;-72
2024/04/07 12:58:17;;;;;;;58.10;3.37;;;;;;;;;;5067031;28;20466;-72
2024/04/07 13:00:44;;;;;;;59.40;2.93;;;;;;;;;;5070995;28;20446;-73
2024/04/07 13:03:12;;;;;;;58.50;3.20;;;;;;;;;;5071700;28;20449;-72
2024/04/07 13:05:39;;;;;;;59.37;3.43;;;;;;;;;;5071454;28;20458;-72
2024/04/07 13:08:07;;;;;;;69.40;6.50;;;;;;;;;;5071763;28;20466;-70
2024/04/07 13:10:35;;;;;;;63.23;5.70;;;;;;;;;;5071299;28;21007;-73
2024/04/07 13:13:02;;;;;;;65.53;9.77;;;;;;;;;;5071512;28;20458;-72
2024/04/07 13:15:28;;;;;;;60.50;4.97;;;;;;;;;;5071358;28;20485;-71
2024/04/07 13:17:55;;;;;;;57.57;3.30;;;;;;;;;;5071788;28;20451;-71
2024/04/07 13:20:21;;;;;;;57.70;3.00;;;;;;;;;;5071190;28;20447;-71
2024/04/07 13:22:48;;;;;;;59.23;3.53;;;;;;;;;;5071399;28;20483;-72
2024/04/07 13:25:16;;;;;;;60.10;3.67;;;;;;;;;;5071624;28;20456;-71
2024/04/07 13:27:44;;;;;;;60.50;3.53;;;;;;;;;;5071862;28;20457;-71
2024/04/07 13:30:10;;;;;;;60.80;3.40;;;;;;;;;;5074982;28;20481;-71
2024/04/07 13:32:37;;;;;;;57.70;3.50;;;;;;;;;;5075095;28;20476;-72
2024/04/07 13:35:04;;;;;;;60.17;4.47;;;;;;;;;;5075310;28;20465;-72
2024/04/07 13:37:31;;;;;;;61.27;3.70;;;;;;;;;;5075669;28;20537;-71
2024/04/07 13:39:57;;;;;;;63.17;3.83;;;;;;;;;;5075202;28;21092;-71
2024/04/07 13:42:25;;;;;;;58.17;2.93;;;;;;;;;;5074716;28;20458;-71
2024/04/07 13:44:52;;;;;;;63.30;4.27;;;;;;;;;;5075392;28;20529;-71
2024/04/07 13:47:19;;;;;;;60.17;5.90;;;;;;;;;;5075080;28;20451;-71
2024/04/07 13:49:45;;;;;;;58.30;3.17;;;;;;;;;;5074859;28;20478;-72
2024/04/07 13:52:13;;;;;;;59.20;3.50;;;;;;;;;;5074822;28;20821;-72
2024/04/07 13:54:39;;;;;;;61.33;3.40;;;;;;;;;;5074841;28;20793;-72
2024/04/07 13:57:06;;;;;;;58.30;3.90;;;;;;;;;;5075049;28;20450;-71
2024/04/07 13:59:33;;;;;;;58.33;3.47;;;;;;;;;;5075176;28;20474;-72
2024/04/07 14:02:00;;;;;;;59.30;3.40;;;;;;;;;;5074677;28;20451;-72
2024/04/07 14:04:26;;;;;;;60.77;3.90;;;;;;;;;;5074865;28;20445;-72
2024/04/07 14:06:53;;;;;;;65.40;3.60;;;;;;;;;;5075024;28;20455;-71
2024/04/07 14:09:19;;;;;;;62.63;3.33;;;;;;;;;;5074824;28;20808;-71
2024/04/07 14:11:47;;;;;;;59.67;3.57;;;;;;;;;;5074231;28;20476;-71
2024/04/07 14:14:13;;;;;;;57.67;3.67;;;;;;;;;;5074665;28;20526;-71
2024/04/07 14:16:42;;;;;;;62.53;3.50;;;;;;;;;;5074818;28;20817;-72
2024/04/07 14:19:08;;;;;;;60.87;3.80;;;;;;;;;;5074609;28;20474;-72
2024/04/07 14:21:35;;;;;;;61.17;4.30;;;;;;;;;;5073917;28;20808;-72
2024/04/07 14:24:02;;;;;;;59.10;4.07;;;;;;;;;;5074306;28;20584;-72
2024/04/07 14:26:29;;;;;;;61.30;3.97;;;;;;;;;;5074573;28;20459;-72
2024/04/07 14:28:56;;;;;;;60.83;3.97;;;;;;;;;;5074453;28;20473;-72
2024/04/07 14:31:23;;;;;;;66.47;3.60;;;;;;;;;;5073796;28;20850;-72
2024/04/07 14:33:50;;;;;;;58.13;3.63;;;;;;;;;;5073988;28;20462;-72